createdAt,value
2018-09-30T00:00:43.150Z,97940.38
2018-09-30T00:03:10.049Z,97936.70
2018-09-30T00:05:36.942Z,97938.54
2018-09-30T00:08:03.874Z,97930.38
2018-09-30T00:10:30.750Z,97930.66
2018-09-30T00:12:57.648Z,97933.80
2018-09-30T00:15:24.545Z,97935.12
2018-09-30T00:17:51.462Z,97931.17
2018-09-30T00:20:18.363Z,97933.80
2018-09-30T00:22:45.266Z,97928.27
2018-09-30T00:25:17.469Z,97933.52
2018-09-30T00:27:44.366Z,97932.21
2018-09-30T00:30:11.263Z,97926.16
2018-09-30T00:32:38.157Z,97926.67
2018-09-30T00:35:05.077Z,97922.22
2018-09-30T00:37:31.968Z,97917.48
2018-09-30T00:39:58.865Z,97922.45
2018-09-30T00:42:25.789Z,97912.46
2018-09-30T00:44:52.676Z,97911.94
2018-09-30T00:47:19.562Z,97915.09
2018-09-30T00:49:46.496Z,97910.88
2018-09-30T00:52:13.414Z,97913.77
2018-09-30T00:54:40.322Z,97911.94
2018-09-30T00:57:07.205Z,97907.72
2018-09-30T00:59:34.101Z,97903.27
2018-09-30T01:02:00.996Z,97899.84
2018-09-30T01:04:27.893Z,97896.14
2018-09-30T01:06:54.850Z,97899.05
2018-09-30T01:09:21.740Z,97898.77
2018-09-30T01:11:48.660Z,97898.25
2018-09-30T01:14:15.548Z,97894.03
2018-09-30T01:16:42.432Z,97895.63
2018-09-30T01:19:09.368Z,97894.82
2018-09-30T01:21:36.701Z,97886.94
2018-09-30T01:24:03.701Z,97891.40
2018-09-30T01:26:30.836Z,97882.20
2018-09-30T01:28:57.730Z,97873.80
2018-09-30T01:31:24.629Z,97876.15
2018-09-30T01:33:51.537Z,97876.95
2018-09-30T01:36:18.420Z,97875.63
2018-09-30T01:38:45.310Z,97874.31
2018-09-30T01:41:12.206Z,97874.04
2018-09-30T01:43:39.130Z,97881.41
2018-09-30T01:46:06.026Z,97877.98
2018-09-30T01:48:32.929Z,97880.61
2018-09-30T01:50:59.824Z,97878.26
2018-09-30T01:53:26.736Z,97877.98
2018-09-30T01:55:53.629Z,97877.19
2018-09-30T01:58:20.539Z,97877.98
2018-09-30T02:00:47.437Z,97870.89
2018-09-30T02:03:14.342Z,97867.19
2018-09-30T02:05:41.266Z,97869.82
2018-09-30T02:08:08.169Z,97871.41
2018-09-30T02:10:35.083Z,97865.36
2018-09-30T02:13:01.976Z,97864.05
2018-09-30T02:15:28.876Z,97866.67
2018-09-30T02:17:55.775Z,97864.84
2018-09-30T02:20:22.669Z,97864.84
2018-09-30T02:22:49.561Z,97868.78
2018-09-30T02:25:16.449Z,97834.04
2018-09-30T02:27:43.336Z,97866.43
2018-09-30T02:30:10.239Z,97867.75
2018-09-30T02:32:37.142Z,97865.64
2018-09-30T02:35:04.029Z,97861.70
2018-09-30T02:37:30.933Z,97861.17
2018-09-30T02:39:57.843Z,97858.03
2018-09-30T02:42:24.749Z,97854.33
2018-09-30T02:44:51.656Z,97846.96
2018-09-30T02:47:18.549Z,97840.39
2018-09-30T02:49:45.442Z,97830.41
2018-09-30T02:52:12.336Z,97831.20
2018-09-30T02:54:39.234Z,97830.41
2018-09-30T02:57:06.132Z,97828.56
2018-09-30T02:59:33.020Z,97826.45
2018-09-30T03:01:59.913Z,97821.48
2018-09-30T03:04:26.796Z,97829.88
2018-09-30T03:06:58.882Z,97826.70
2018-09-30T03:09:25.784Z,97823.03
2018-09-30T03:11:52.730Z,97824.87
2018-09-30T03:14:19.631Z,97822.76
2018-09-30T03:16:47.033Z,97818.23
2018-09-30T03:19:14.296Z,97822.69
2018-09-30T03:21:41.195Z,97821.69
2018-09-30T03:24:08.093Z,97812.98
2018-09-30T03:26:34.977Z,97812.19
2018-09-30T03:29:01.935Z,97811.66
2018-09-30T03:31:28.821Z,97804.55
2018-09-30T03:33:55.699Z,97802.19
2018-09-30T03:36:22.726Z,97802.19
2018-09-30T03:38:49.625Z,97803.50
2018-09-30T03:41:16.513Z,97802.44
2018-09-30T03:43:43.397Z,97793.52
2018-09-30T03:46:10.371Z,97787.19
2018-09-30T03:48:37.285Z,97789.30
2018-09-30T03:51:04.210Z,97795.86
2018-09-30T03:53:31.207Z,97792.44
2018-09-30T03:55:58.129Z,97787.19
2018-09-30T03:58:25.101Z,97789.02
2018-09-30T04:00:51.962Z,97791.64
2018-09-30T04:03:19.198Z,97792.69
2018-09-30T04:05:46.096Z,97796.38
2018-09-30T04:08:13.010Z,97794.52
2018-09-30T04:10:39.888Z,97785.08
2018-09-30T04:13:06.777Z,97790.33
2018-09-30T04:15:33.773Z,97786.11
2018-09-30T04:18:00.693Z,97778.23
2018-09-30T04:20:27.584Z,97777.98
2018-09-30T04:22:54.505Z,97772.70
2018-09-30T04:25:21.398Z,97764.82
2018-09-30T04:27:48.284Z,97766.93
2018-09-30T04:30:15.173Z,97763.78
2018-09-30T04:32:42.080Z,97762.98
2018-09-30T04:35:08.984Z,97767.45
2018-09-30T04:37:35.874Z,97766.66
2018-09-30T04:40:02.825Z,97762.98
2018-09-30T04:42:29.721Z,97753.52
2018-09-30T04:44:56.616Z,97756.14
2018-09-30T04:47:23.517Z,97752.72
2018-09-30T04:49:50.466Z,97756.14
2018-09-30T04:52:17.323Z,97759.29
2018-09-30T04:54:44.241Z,97747.19
2018-09-30T04:57:11.129Z,97751.41
2018-09-30T04:59:38.008Z,97755.07
2018-09-30T05:02:04.906Z,97752.97
2018-09-30T05:04:31.792Z,97755.59
2018-09-30T05:06:58.715Z,97752.97
2018-09-30T05:09:25.622Z,97752.45
2018-09-30T05:11:52.517Z,97752.45
2018-09-30T05:14:19.394Z,97752.97
2018-09-30T05:16:46.284Z,97749.54
2018-09-30T05:19:13.172Z,97750.06
2018-09-30T05:21:40.058Z,97747.44
2018-09-30T05:24:06.990Z,97750.06
2018-09-30T05:26:33.881Z,97751.65
2018-09-30T05:29:00.782Z,97750.86
2018-09-30T05:31:27.678Z,97743.49
2018-09-30T05:33:54.565Z,97743.49
2018-09-30T05:36:21.458Z,97741.66
2018-09-30T05:38:48.355Z,97739.55
2018-09-30T05:41:15.254Z,97743.22
2018-09-30T05:43:42.148Z,97741.39
2018-09-30T05:46:09.065Z,97738.76
2018-09-30T05:48:35.962Z,97744.53
2018-09-30T05:51:02.848Z,97741.11
2018-09-30T05:53:29.744Z,97743.22
2018-09-30T05:55:56.633Z,97737.17
2018-09-30T05:58:23.527Z,97740.59
2018-09-30T06:00:50.429Z,97744.53
2018-09-30T06:03:17.341Z,97744.25
2018-09-30T06:05:44.228Z,97744.25
2018-09-30T06:08:11.120Z,97744.77
2018-09-30T06:10:38.018Z,97747.40
2018-09-30T06:13:04.934Z,97742.94
2018-09-30T06:15:31.846Z,97742.15
2018-09-30T06:17:59.029Z,97744.77
2018-09-30T06:20:25.925Z,97743.46
2018-09-30T06:22:52.813Z,97742.15
2018-09-30T06:25:19.720Z,97740.56
2018-09-30T06:27:46.619Z,97745.57
2018-09-30T06:30:13.521Z,97741.62
2018-09-30T06:32:40.421Z,97738.20
2018-09-30T06:35:07.310Z,97730.33
2018-09-30T06:37:34.213Z,97728.22
2018-09-30T06:40:01.128Z,97722.96
2018-09-30T06:42:28.031Z,97726.11
2018-09-30T06:44:54.952Z,97727.42
2018-09-30T06:47:21.841Z,97739.24
2018-09-30T06:49:48.852Z,97734.48
2018-09-30T06:52:15.781Z,97729.53
2018-09-30T06:54:42.687Z,97727.42
2018-09-30T06:57:09.581Z,97724.80
2018-09-30T06:59:36.482Z,97724.80
2018-09-30T07:02:03.434Z,97722.17
2018-09-30T07:04:30.369Z,97728.73
2018-09-30T07:06:57.252Z,97730.84
2018-09-30T07:09:24.185Z,97726.59
2018-09-30T07:11:51.073Z,97731.58
2018-09-30T07:14:17.964Z,97737.93
2018-09-30T07:16:44.864Z,97739.24
2018-09-30T07:19:11.778Z,97741.05
2018-09-30T07:21:38.666Z,97739.52
2018-09-30T07:24:05.560Z,97740.04
2018-09-30T07:26:32.483Z,97729.53
2018-09-30T07:28:59.388Z,97739.52
2018-09-30T07:31:26.277Z,97733.47
2018-09-30T07:33:53.202Z,97736.09
2018-09-30T07:36:20.093Z,97738.20
2018-09-30T07:38:46.977Z,97734.27
2018-09-30T07:41:13.866Z,97734.27
2018-09-30T07:43:40.844Z,97735.58
2018-09-30T07:46:07.744Z,97729.01
2018-09-30T07:48:34.641Z,97727.70
2018-09-30T07:51:01.537Z,97729.28
2018-09-30T07:53:28.421Z,97728.77
2018-09-30T07:55:55.337Z,97725.86
2018-09-30T07:58:22.214Z,97725.34
2018-09-30T08:00:49.182Z,97718.78
2018-09-30T08:03:16.077Z,97716.15
2018-09-30T08:05:42.973Z,97719.05
2018-09-30T08:08:09.861Z,97720.88
2018-09-30T08:10:36.757Z,97717.22
2018-09-30T08:13:03.640Z,97716.42
2018-09-30T08:15:30.524Z,97710.38
2018-09-30T08:17:57.413Z,97711.96
2018-09-30T08:20:24.305Z,97716.97
2018-09-30T08:22:51.230Z,97719.36
2018-09-30T08:25:18.120Z,97709.13
2018-09-30T08:27:45.018Z,97709.13
2018-09-30T08:30:11.914Z,97712.55
2018-09-30T08:32:38.818Z,97706.22
2018-09-30T08:35:05.721Z,97707.26
2018-09-30T08:37:37.956Z,97710.41
2018-09-30T08:40:04.933Z,97715.14
2018-09-30T08:42:31.819Z,97708.05
2018-09-30T08:44:58.709Z,97709.89
2018-09-30T08:47:25.702Z,97703.56
2018-09-30T08:49:52.525Z,97702.80
2018-09-30T08:52:19.408Z,97698.86
2018-09-30T08:54:46.310Z,97694.91
2018-09-30T08:57:13.200Z,97696.23
2018-09-30T08:59:40.093Z,97698.61
2018-09-30T09:02:07.002Z,97688.89
2018-09-30T09:04:33.916Z,97690.20
2018-09-30T09:07:00.812Z,97691.80
2018-09-30T09:09:27.706Z,97699.68
2018-09-30T09:11:54.594Z,97698.64
2018-09-30T09:14:21.485Z,97698.64
2018-09-30T09:16:48.381Z,97697.88
2018-09-30T09:19:15.265Z,97691.83
2018-09-30T09:21:42.145Z,97689.99
2018-09-30T09:24:09.020Z,97682.63
2018-09-30T09:26:35.933Z,97680.06
2018-09-30T09:29:02.813Z,97678.22
2018-09-30T09:31:29.719Z,97666.67
2018-09-30T09:33:56.629Z,97660.63
2018-09-30T09:36:23.504Z,97660.89
2018-09-30T09:38:50.385Z,97658.54
2018-09-30T09:41:17.274Z,97661.45
2018-09-30T09:43:44.201Z,97658.57
2018-09-30T09:46:11.089Z,97654.11
2018-09-30T09:48:37.988Z,97649.40
2018-09-30T09:51:05.134Z,97647.56
2018-09-30T09:53:32.030Z,97646.27
2018-09-30T09:55:58.936Z,97648.91
2018-09-30T09:58:25.829Z,97648.41
2018-09-30T10:00:52.718Z,97643.42
2018-09-30T10:03:19.601Z,97643.18
2018-09-30T10:05:46.488Z,97631.63
2018-09-30T10:08:13.753Z,97631.41
2018-09-30T10:10:40.669Z,97624.59
2018-09-30T10:13:07.770Z,97618.29
2018-09-30T10:15:34.633Z,97617.52
2018-09-30T10:18:01.526Z,97619.62
2018-09-30T10:20:28.573Z,97618.86
2018-09-30T10:22:55.452Z,97617.59
2018-09-30T10:25:22.336Z,97614.72
2018-09-30T10:27:49.233Z,97612.36
2018-09-30T10:30:16.122Z,97602.39
2018-09-30T10:32:43.053Z,97598.69
2018-09-30T10:35:09.940Z,97601.34
2018-09-30T10:37:36.834Z,97589.27
2018-09-30T10:40:03.739Z,97582.17
2018-09-30T10:42:31.170Z,97583.23
2018-09-30T10:44:58.052Z,97579.56
2018-09-30T10:47:25.151Z,97575.39
2018-09-30T10:49:52.050Z,97574.38
2018-09-30T10:52:18.945Z,97568.59
2018-09-30T10:54:45.866Z,97565.70
2018-09-30T10:57:12.756Z,97565.19
2018-09-30T10:59:39.646Z,97557.56
2018-09-30T11:02:06.553Z,97550.48
2018-09-30T11:04:33.432Z,97544.69
2018-09-30T11:07:00.374Z,97533.39
2018-09-30T11:09:27.336Z,97533.19
2018-09-30T11:11:54.193Z,97537.92
2018-09-30T11:14:21.082Z,97524.00
2018-09-30T11:16:47.973Z,97518.20
2018-09-30T11:19:14.860Z,97510.08
2018-09-30T11:21:41.765Z,97500.61
2018-09-30T11:24:08.667Z,97506.67
2018-09-30T11:26:35.553Z,97501.42
2018-09-30T11:29:02.459Z,97486.95
2018-09-30T11:31:29.349Z,97492.27
2018-09-30T11:33:56.248Z,97488.33
2018-09-30T11:36:23.137Z,97481.75
2018-09-30T11:38:50.016Z,97477.55
2018-09-30T11:41:16.921Z,97478.09
2018-09-30T11:43:43.814Z,97467.56
2018-09-30T11:46:10.716Z,97462.84
2018-09-30T11:48:37.638Z,97456.80
2018-09-30T11:51:04.528Z,97458.65
2018-09-30T11:53:31.410Z,97456.58
2018-09-30T11:55:58.308Z,97453.44
2018-09-30T11:58:25.209Z,97455.28
2018-09-30T12:00:52.092Z,97444.49
2018-09-30T12:03:18.986Z,97439.77
2018-09-30T12:05:45.882Z,97438.98
2018-09-30T12:08:12.772Z,97435.84
2018-09-30T12:10:39.692Z,97432.22
2018-09-30T12:13:06.594Z,97436.44
2018-09-30T12:15:33.476Z,97433.02
2018-09-30T12:18:00.353Z,97430.64
2018-09-30T12:20:27.245Z,97418.55
2018-09-30T12:22:54.157Z,97415.40
2018-09-30T12:25:21.044Z,97420.39
2018-09-30T12:27:47.928Z,97407.50
2018-09-30T12:30:14.817Z,97412.51
2018-09-30T12:32:41.705Z,97405.66
2018-09-30T12:35:08.614Z,97399.09
2018-09-30T12:37:35.501Z,97400.41
2018-09-30T12:40:02.409Z,97398.86
2018-09-30T12:42:29.301Z,97396.76
2018-09-30T12:44:56.191Z,97391.50
2018-09-30T12:47:23.153Z,97391.77
2018-09-30T12:49:50.012Z,97384.66
2018-09-30T12:52:16.903Z,97387.55
2018-09-30T12:54:43.793Z,97378.87
2018-09-30T12:57:10.686Z,97377.30
2018-09-30T12:59:37.616Z,97366.50
2018-09-30T13:02:04.522Z,97381.25
2018-09-30T13:04:31.403Z,97364.66
2018-09-30T13:06:58.293Z,97359.14
2018-09-30T13:09:25.201Z,97360.19
2018-09-30T13:11:52.105Z,97360.98
2018-09-30T13:14:18.997Z,97360.98
2018-09-30T13:16:45.904Z,97346.80
2018-09-30T13:19:12.802Z,97346.53
2018-09-30T13:21:39.690Z,97341.02
2018-09-30T13:24:06.568Z,97337.85
2018-09-30T13:26:33.454Z,97331.01
2018-09-30T13:29:00.337Z,97327.84
2018-09-30T13:31:27.216Z,97330.22
2018-09-30T13:33:54.105Z,97323.38
2018-09-30T13:36:21.002Z,97328.91
2018-09-30T13:38:48.208Z,97319.16
2018-09-30T13:41:15.218Z,97318.90
2018-09-30T13:43:42.037Z,97314.42
2018-09-30T13:46:08.980Z,97308.11
2018-09-30T13:48:35.841Z,97297.31
2018-09-30T13:51:02.740Z,97292.05
2018-09-30T13:53:29.644Z,97291.81
2018-09-30T13:55:56.529Z,97294.70
2018-09-30T13:58:23.416Z,97287.34
2018-09-30T14:00:50.325Z,97289.44
2018-09-30T14:03:17.227Z,97283.12
2018-09-30T14:05:44.119Z,97281.28
2018-09-30T14:08:11.026Z,97281.52
2018-09-30T14:10:37.949Z,97283.12
2018-09-30T14:13:04.845Z,97277.06
2018-09-30T14:15:31.744Z,97272.86
2018-09-30T14:17:58.642Z,97267.84
2018-09-30T14:20:25.551Z,97270.75
2018-09-30T14:22:52.438Z,97263.91
2018-09-30T14:25:19.324Z,97260.48
2018-09-30T14:27:46.220Z,97257.31
2018-09-30T14:30:13.144Z,97256.79
2018-09-30T14:32:40.038Z,97256.27
2018-09-30T14:35:06.938Z,97251.00
2018-09-30T14:37:33.829Z,97249.68
2018-09-30T14:40:01.093Z,97254.42
2018-09-30T14:42:28.005Z,97240.98
2018-09-30T14:44:55.057Z,97235.46
2018-09-30T14:47:21.954Z,97238.09
2018-09-30T14:49:48.861Z,97239.15
2018-09-30T14:52:15.774Z,97238.62
2018-09-30T14:54:42.652Z,97239.41
2018-09-30T14:57:09.537Z,97237.83
2018-09-30T14:59:36.463Z,97232.83
2018-09-30T15:02:03.375Z,97237.05
2018-09-30T15:04:30.365Z,97228.86
2018-09-30T15:06:57.478Z,97233.09
2018-09-30T15:09:24.365Z,97222.83
2018-09-30T15:11:51.253Z,97220.43
2018-09-30T15:14:18.171Z,97230.47
2018-09-30T15:16:45.154Z,97228.63
2018-09-30T15:19:12.082Z,97224.67
2018-09-30T15:21:39.009Z,97222.27
2018-09-30T15:24:05.904Z,97213.06
2018-09-30T15:26:32.793Z,97208.06
2018-09-30T15:28:59.685Z,97214.91
2018-09-30T15:31:26.601Z,97214.91
2018-09-30T15:33:53.521Z,97211.75
2018-09-30T15:36:20.404Z,97215.70
2018-09-30T15:38:47.865Z,97213.33
2018-09-30T15:41:14.744Z,97208.33
2018-09-30T15:43:41.633Z,97209.91
2018-09-30T15:46:08.524Z,97205.17
2018-09-30T15:48:35.437Z,97205.44
2018-09-30T15:51:02.350Z,97202.28
2018-09-30T15:53:29.257Z,97207.78
2018-09-30T15:55:56.141Z,97203.58
2018-09-30T15:58:23.030Z,97203.58
2018-09-30T16:00:49.922Z,97199.36
2018-09-30T16:03:16.874Z,97203.84
2018-09-30T16:05:43.790Z,97205.94
2018-09-30T16:08:11.118Z,97205.16
2018-09-30T16:10:38.088Z,97204.11
2018-09-30T16:13:04.985Z,97195.69
2018-09-30T16:15:31.886Z,97196.47
2018-09-30T16:17:58.765Z,97198.84
2018-09-30T16:20:25.654Z,97197.80
2018-09-30T16:22:52.600Z,97198.81
2018-09-30T16:25:19.476Z,97192.50
2018-09-30T16:27:46.411Z,97198.30
2018-09-30T16:30:13.334Z,97203.29
2018-09-30T16:32:40.231Z,97204.88
2018-09-30T16:35:07.185Z,97203.55
2018-09-30T16:37:34.033Z,97204.09
2018-09-30T16:40:00.921Z,97206.98
2018-09-30T16:42:27.809Z,97205.92
2018-09-30T16:44:54.726Z,97209.88
2018-09-30T16:47:21.619Z,97209.34
2018-09-30T16:49:48.738Z,97205.40
2018-09-30T16:52:15.637Z,97206.72
2018-09-30T16:54:42.521Z,97204.81
2018-09-30T16:57:09.423Z,97205.08
2018-09-30T16:59:36.321Z,97206.92
2018-09-30T17:02:03.233Z,97213.23
2018-09-30T17:04:30.142Z,97207.70
2018-09-30T17:06:57.030Z,97203.50
2018-09-30T17:09:23.924Z,97205.08
2018-09-30T17:11:50.809Z,97207.70
2018-09-30T17:14:17.765Z,97206.39
2018-09-30T17:16:44.649Z,97206.13
2018-09-30T17:19:11.574Z,97209.28
2018-09-30T17:21:38.478Z,97207.97
2018-09-30T17:24:05.361Z,97202.71
2018-09-30T17:26:32.249Z,97207.70
2018-09-30T17:28:59.146Z,97206.13
2018-09-30T17:31:26.046Z,97205.60
2018-09-30T17:33:52.934Z,97201.92
2018-09-30T17:36:19.832Z,97202.45
2018-09-30T17:38:46.730Z,97200.87
2018-09-30T17:41:13.616Z,97198.50
2018-09-30T17:43:40.509Z,97195.58
2018-09-30T17:46:07.391Z,97192.95
2018-09-30T17:48:34.305Z,97196.89
2018-09-30T17:51:01.258Z,97189.27
2018-09-30T17:53:28.140Z,97187.69
2018-09-30T17:55:55.016Z,97182.95
2018-09-30T17:58:21.902Z,97180.05
2018-09-30T18:00:48.849Z,97185.84
2018-09-30T18:03:15.737Z,97182.42
2018-09-30T18:05:42.616Z,97177.42
2018-09-30T18:08:09.510Z,97185.31
2018-09-30T18:10:36.429Z,97179.00
2018-09-30T18:13:03.337Z,97175.06
2018-09-30T18:15:30.235Z,97176.63
2018-09-30T18:17:57.130Z,97176.89
2018-09-30T18:20:24.047Z,97174.27
2018-09-30T18:22:51.120Z,97179.00
2018-09-30T18:25:18.011Z,97174.27
2018-09-30T18:27:44.910Z,97171.64
2018-09-30T18:30:11.925Z,97175.06
2018-09-30T18:32:38.808Z,97168.22
2018-09-30T18:35:05.711Z,97169.27
2018-09-30T18:37:32.602Z,97172.42
2018-09-30T18:39:59.556Z,97176.11
2018-09-30T18:42:26.389Z,97172.42
2018-09-30T18:44:53.271Z,97172.95
2018-09-30T18:47:20.181Z,97170.84
2018-09-30T18:49:47.085Z,97164.01
2018-09-30T18:52:13.965Z,97168.22
2018-09-30T18:54:40.850Z,97163.75
2018-09-30T18:57:07.736Z,97164.53
2018-09-30T18:59:34.640Z,97164.01
2018-09-30T19:02:01.532Z,97167.69
2018-09-30T19:04:28.453Z,97171.63
2018-09-30T19:06:55.320Z,97175.81
2018-09-30T19:09:22.206Z,97161.34
2018-09-30T19:11:49.115Z,97162.17
2018-09-30T19:14:16.015Z,97153.45
2018-09-30T19:16:42.902Z,97153.98
2018-09-30T19:19:09.851Z,97130.81
2018-09-30T19:21:36.697Z,97157.14
2018-09-30T19:24:03.581Z,97147.41
2018-09-30T19:26:30.501Z,97153.45
2018-09-30T19:28:57.404Z,97147.67
2018-09-30T19:31:24.298Z,97143.73
2018-09-30T19:33:51.189Z,97145.56
2018-09-30T19:36:18.090Z,97147.41
2018-09-30T19:38:44.980Z,97141.36
2018-09-30T19:41:11.873Z,97140.31
2018-09-30T19:43:38.809Z,97137.94
2018-09-30T19:46:05.696Z,97139.26
2018-09-30T19:48:32.582Z,97130.31
2018-09-30T19:50:59.569Z,97132.95
2018-09-30T19:53:26.457Z,97130.84
2018-09-30T19:55:53.382Z,97135.31
2018-09-30T19:58:20.279Z,97127.16
2018-09-30T20:00:47.295Z,97122.95
2018-09-30T20:03:14.203Z,97117.16
2018-09-30T20:05:41.106Z,97112.43
2018-09-30T20:08:08.030Z,97108.75
2018-09-30T20:10:34.995Z,97106.38
2018-09-30T20:13:01.865Z,97100.34
2018-09-30T20:15:28.765Z,97102.17
2018-09-30T20:17:55.661Z,97100.59
2018-09-30T20:20:22.549Z,97104.55
2018-09-30T20:22:49.469Z,97101.12
2018-09-30T20:25:16.363Z,97102.44
2018-09-30T20:27:43.257Z,97105.86
2018-09-30T20:30:10.160Z,97099.81
2018-09-30T20:32:37.047Z,97101.12
2018-09-30T20:35:03.940Z,97097.70
2018-09-30T20:37:30.830Z,97096.13
2018-09-30T20:39:57.731Z,97099.55
2018-09-30T20:42:24.629Z,97097.97
2018-09-30T20:44:51.521Z,97098.50
2018-09-30T20:47:18.400Z,97091.39
2018-09-30T20:49:45.312Z,97091.13
2018-09-30T20:52:12.204Z,97096.09
2018-09-30T20:54:39.089Z,97097.70
2018-09-30T20:57:05.990Z,97092.45
2018-09-30T20:59:32.893Z,97086.89
2018-09-30T21:01:59.791Z,97087.95
2018-09-30T21:04:26.681Z,97084.80
2018-09-30T21:06:53.610Z,97082.43
2018-09-30T21:09:21.588Z,97086.11
2018-09-30T21:11:48.473Z,97088.73
2018-09-30T21:14:15.465Z,97086.38
2018-09-30T21:16:42.352Z,97081.11
2018-09-30T21:19:09.293Z,97080.85
2018-09-30T21:21:36.198Z,97077.17
2018-09-30T21:24:03.081Z,97082.43
2018-09-30T21:26:29.989Z,97074.28
2018-09-30T21:28:56.886Z,97075.33
2018-09-30T21:31:23.782Z,97075.59
2018-09-30T21:33:50.677Z,97067.70
2018-09-30T21:36:17.662Z,97061.66
2018-09-30T21:38:44.573Z,97057.98
2018-09-30T21:41:11.473Z,97058.77
2018-09-30T21:43:38.373Z,97054.30
2018-09-30T21:46:05.262Z,97054.30
2018-09-30T21:48:32.204Z,97041.67
2018-09-30T21:50:59.081Z,97047.72
2018-09-30T21:53:25.964Z,97041.67
2018-09-30T21:55:52.874Z,97046.94
2018-09-30T21:58:19.764Z,97046.94
2018-09-30T22:00:52.044Z,97038.78
2018-09-30T22:03:18.937Z,97040.62
2018-09-30T22:05:45.833Z,97044.30
2018-09-30T22:08:12.742Z,97039.31
2018-09-30T22:10:41.071Z,97038.78
2018-09-30T22:13:08.318Z,97036.69
2018-09-30T22:15:35.375Z,97029.32
2018-09-30T22:18:02.369Z,97033.80
2018-09-30T22:20:29.277Z,97028.27
2018-09-30T22:22:56.171Z,97023.02
2018-09-30T22:25:23.078Z,97019.33
2018-09-30T22:27:49.981Z,97008.03
2018-09-30T22:30:16.856Z,97012.23
2018-09-30T22:32:43.768Z,97009.08
2018-09-30T22:35:10.925Z,97001.72
2018-09-30T22:37:37.808Z,97005.14
2018-09-30T22:40:04.718Z,97005.14
2018-09-30T22:42:31.626Z,97004.87
2018-09-30T22:44:58.513Z,97004.61
2018-09-30T22:47:25.393Z,97002.25
2018-09-30T22:49:52.366Z,97001.72
2018-09-30T22:52:19.264Z,97001.45
2018-09-30T22:54:46.158Z,97003.56
2018-09-30T22:57:13.071Z,96999.09
2018-09-30T22:59:39.961Z,96996.46
2018-09-30T23:02:07.167Z,97003.30
2018-09-30T23:04:34.102Z,97006.19
2018-09-30T23:07:01.004Z,97008.81
2018-09-30T23:09:27.902Z,97007.77
2018-09-30T23:11:54.789Z,97006.98
2018-09-30T23:14:21.694Z,97000.41
2018-09-30T23:16:48.580Z,97004.59
2018-09-30T23:19:15.490Z,97003.56
2018-09-30T23:21:42.402Z,96997.48
2018-09-30T23:24:09.280Z,96999.63
2018-09-30T23:26:36.169Z,96998.80
2018-09-30T23:29:03.076Z,96999.63
2018-09-30T23:31:29.970Z,97002.75
2018-09-30T23:33:56.861Z,96995.91
2018-09-30T23:36:23.758Z,96996.97
2018-09-30T23:38:50.657Z,96993.28
2018-09-30T23:41:17.582Z,96995.39
2018-09-30T23:43:44.510Z,96991.44
2018-09-30T23:46:11.385Z,96994.59
2018-09-30T23:48:38.274Z,96995.65
2018-09-30T23:51:05.412Z,96986.98
2018-09-30T23:53:32.306Z,96985.13
2018-09-30T23:55:59.196Z,96985.13
2018-09-30T23:58:26.081Z,96982.24
